createdAt,value
2023-04-20T00:00:27.770Z,9.242380
2023-04-20T00:01:27.751Z,9.242366
2023-04-20T00:02:27.898Z,9.242427
2023-04-20T00:03:27.877Z,9.242448
2023-04-20T00:04:27.724Z,9.242425
2023-04-20T00:05:27.772Z,9.242440
2023-04-20T00:06:27.710Z,9.242417
2023-04-20T00:07:27.758Z,9.242399
2023-04-20T00:08:27.722Z,9.242391
2023-04-20T00:09:27.680Z,9.242410
2023-04-20T00:10:28.688Z,9.242412
2023-04-20T00:11:27.696Z,9.242422
2023-04-20T00:12:27.697Z,9.242441
2023-04-20T00:13:27.666Z,9.242428
2023-04-20T00:14:27.692Z,9.242432
2023-04-20T00:15:27.652Z,9.242422
2023-04-20T00:16:27.708Z,9.242432
2023-04-20T00:17:27.745Z,9.242438
2023-04-20T00:18:27.653Z,9.242479
2023-04-20T00:19:27.629Z,9.242415
2023-04-20T00:20:27.623Z,9.242377
2023-04-20T00:21:27.628Z,9.242427
2023-04-20T00:22:27.914Z,9.242368
2023-04-20T00:23:27.619Z,9.242415
2023-04-20T00:24:27.596Z,9.242383
2023-04-20T00:25:27.588Z,9.242411
2023-04-20T00:26:27.578Z,9.242368
2023-04-20T00:27:28.043Z,9.242353
2023-04-20T00:28:27.577Z,9.242396
2023-04-20T00:29:27.572Z,9.242412
2023-04-20T00:30:27.555Z,9.242416
2023-04-20T00:31:27.604Z,9.242384
2023-04-20T00:32:27.788Z,9.242368
2023-04-20T00:33:27.664Z,9.242437
2023-04-20T00:34:27.522Z,9.242390
2023-04-20T00:35:27.524Z,9.242464
2023-04-20T00:36:27.526Z,9.242398
2023-04-20T00:37:27.828Z,9.242414
2023-04-20T00:38:27.497Z,9.242395
2023-04-20T00:39:27.516Z,9.242432
2023-04-20T00:40:27.482Z,9.242410
2023-04-20T00:41:28.483Z,9.242393
2023-04-20T00:42:27.470Z,9.242350
2023-04-20T00:43:27.525Z,9.242432
2023-04-20T00:44:27.464Z,9.242404
2023-04-20T00:45:27.446Z,9.242381
2023-04-20T00:46:27.525Z,9.242285
2023-04-20T00:47:27.473Z,9.242277
2023-04-20T00:48:27.430Z,9.242281
2023-04-20T00:49:27.434Z,9.242297
2023-04-20T00:50:27.434Z,9.242336
2023-04-20T00:51:27.407Z,9.242371
2023-04-20T00:52:27.415Z,9.242347
2023-04-20T00:53:27.406Z,9.242323
2023-04-20T00:54:27.418Z,9.242288
2023-04-20T00:55:27.377Z,9.242288
2023-04-20T00:56:27.392Z,9.242213
2023-04-20T00:57:27.384Z,9.242306
2023-04-20T00:58:27.368Z,9.242330
2023-04-20T00:59:27.356Z,9.242316
2023-04-20T01:00:27.355Z,9.242331
2023-04-20T01:01:27.405Z,9.242249
2023-04-20T01:02:27.440Z,9.242289
2023-04-20T01:03:27.440Z,9.242311
2023-04-20T01:04:27.424Z,9.242369
2023-04-20T01:05:27.327Z,9.242342
2023-04-20T01:06:27.314Z,9.242330
2023-04-20T01:07:27.295Z,9.242386
2023-04-20T01:08:27.303Z,9.242339
2023-04-20T01:09:27.305Z,9.242340
2023-04-20T01:10:27.272Z,9.242402
2023-04-20T01:11:27.261Z,9.242339
2023-04-20T01:12:27.270Z,9.242278
2023-04-20T01:13:27.274Z,9.242297
2023-04-20T01:14:27.248Z,9.242419
2023-04-20T01:15:27.243Z,9.242419
2023-04-20T01:16:27.353Z,9.242338
2023-04-20T01:17:27.242Z,9.242401
2023-04-20T01:18:27.238Z,9.242255
2023-04-20T01:19:27.213Z,9.242196
2023-04-20T01:20:27.212Z,9.242290
2023-04-20T01:21:27.201Z,9.242376
2023-04-20T01:22:27.185Z,9.242424
2023-04-20T01:23:27.212Z,9.242271
2023-04-20T01:24:27.181Z,9.242311
2023-04-20T01:25:27.325Z,9.242341
2023-04-20T01:26:27.170Z,9.242384
2023-04-20T01:27:27.167Z,9.242363
2023-04-20T01:28:27.182Z,9.242408
2023-04-20T01:29:27.153Z,9.242393
2023-04-20T01:30:27.130Z,9.242407
2023-04-20T01:31:27.155Z,9.242352
2023-04-20T01:32:27.162Z,9.242342
2023-04-20T01:33:27.140Z,9.242387
2023-04-20T01:34:27.112Z,9.242381
2023-04-20T01:35:27.161Z,9.242393
2023-04-20T01:36:27.120Z,9.242326
2023-04-20T01:37:27.123Z,9.242462
2023-04-20T01:38:27.103Z,9.242380
2023-04-20T01:39:27.116Z,9.242387
2023-04-20T01:40:27.088Z,9.242300
2023-04-20T01:41:27.083Z,9.242269
2023-04-20T01:42:27.052Z,9.242253
2023-04-20T01:43:27.077Z,9.242267
2023-04-20T01:44:27.057Z,9.242323
2023-04-20T01:45:27.041Z,9.242283
2023-04-20T01:46:27.064Z,9.242231
2023-04-20T01:47:27.045Z,9.242293
2023-04-20T01:48:27.174Z,9.242278
2023-04-20T01:49:27.058Z,9.242303
2023-04-20T01:50:27.038Z,9.242286
2023-04-20T01:51:27.049Z,9.242289
2023-04-20T01:52:27.056Z,9.242307
2023-04-20T01:53:27.013Z,9.242295
2023-04-20T01:54:27.056Z,9.242287
2023-04-20T01:55:27.151Z,9.242276
2023-04-20T01:56:26.980Z,9.242261
2023-04-20T01:57:27.013Z,9.242273
2023-04-20T01:58:27.054Z,9.242288
2023-04-20T01:59:26.973Z,9.242346
2023-04-20T02:00:27.055Z,9.242352
2023-04-20T02:01:27.309Z,9.242403
2023-04-20T02:02:27.152Z,9.242418
2023-04-20T02:03:27.227Z,9.242146
2023-04-20T02:04:27.946Z,9.242352
2023-04-20T02:05:26.963Z,9.242321
2023-04-20T02:06:26.934Z,9.242413
2023-04-20T02:07:26.981Z,9.242348
2023-04-20T02:08:26.949Z,9.242210
2023-04-20T02:09:26.949Z,9.242257
2023-04-20T02:10:27.073Z,9.242444
2023-04-20T02:11:27.206Z,9.242432
2023-04-20T02:12:26.966Z,9.242373
2023-04-20T02:13:27.140Z,9.242457
2023-04-20T02:14:26.907Z,9.242311
2023-04-20T02:15:27.119Z,9.242447
2023-04-20T02:16:27.852Z,9.242434
2023-04-20T02:17:27.089Z,9.242370
2023-04-20T02:18:27.125Z,9.242442
2023-04-20T02:19:27.087Z,9.242404
2023-04-20T02:20:27.754Z,9.242337
2023-04-20T02:21:26.987Z,9.242351
2023-04-20T02:22:27.774Z,9.242271
2023-04-20T02:23:26.917Z,9.242461
2023-04-20T02:24:26.998Z,9.241998
2023-04-20T02:25:26.890Z,9.242391
2023-04-20T02:26:27.159Z,9.242414
2023-04-20T02:27:27.787Z,9.242285
2023-04-20T02:28:26.988Z,9.242377
2023-04-20T02:29:26.854Z,9.242366
2023-04-20T02:30:27.235Z,9.242360
2023-04-20T02:31:27.773Z,9.242420
2023-04-20T02:32:27.156Z,9.242350
2023-04-20T02:33:26.870Z,9.242471
2023-04-20T02:34:26.726Z,9.242324
2023-04-20T02:35:26.913Z,9.242277
2023-04-20T02:36:27.228Z,9.242336
2023-04-20T02:37:26.685Z,9.242431
2023-04-20T02:38:27.012Z,9.242413
2023-04-20T02:39:26.703Z,9.242431
2023-04-20T02:40:26.660Z,9.242358
2023-04-20T02:41:26.702Z,9.242366
2023-04-20T02:42:26.655Z,9.242249
2023-04-20T02:43:26.656Z,9.242270
2023-04-20T02:44:26.639Z,9.242318
2023-04-20T02:45:26.638Z,9.242351
2023-04-20T02:46:26.682Z,9.242335
2023-04-20T02:47:26.639Z,9.242338
2023-04-20T02:48:26.658Z,9.242370
2023-04-20T02:49:26.597Z,9.242293
2023-04-20T02:50:26.600Z,9.242387
2023-04-20T02:51:26.611Z,9.242377
2023-04-20T02:52:26.572Z,9.242349
2023-04-20T02:53:26.594Z,9.242368
2023-04-20T02:54:26.572Z,9.242335
2023-04-20T02:55:26.562Z,9.242405
2023-04-20T02:56:26.558Z,9.242391
2023-04-20T02:57:26.558Z,9.242337
2023-04-20T02:58:26.561Z,9.242361
2023-04-20T02:59:26.527Z,9.242368
2023-04-20T03:00:26.534Z,9.242404
2023-04-20T03:01:26.557Z,9.242411
2023-04-20T03:02:26.688Z,9.242188
2023-04-20T03:03:26.680Z,9.242075
2023-04-20T03:04:26.643Z,9.242236
2023-04-20T03:05:26.488Z,9.242232
2023-04-20T03:06:26.492Z,9.242415
2023-04-20T03:07:26.472Z,9.242031
2023-04-20T03:08:26.490Z,9.241672
2023-04-20T03:09:26.464Z,9.241554
2023-04-20T03:10:26.457Z,9.242175
2023-04-20T03:11:26.440Z,9.242238
2023-04-20T03:12:26.431Z,9.242360
2023-04-20T03:13:27.477Z,9.242315
2023-04-20T03:14:26.416Z,9.242155
2023-04-20T03:15:26.421Z,9.242039
2023-04-20T03:16:27.469Z,9.242032
2023-04-20T03:17:26.423Z,9.242273
2023-04-20T03:18:26.425Z,9.242332
2023-04-20T03:19:26.394Z,9.242381
2023-04-20T03:20:26.378Z,9.242481
2023-04-20T03:21:26.373Z,9.242383
2023-04-20T03:22:26.371Z,9.242525
2023-04-20T03:23:26.405Z,9.242550
2023-04-20T03:24:26.351Z,9.242455
2023-04-20T03:25:26.357Z,9.242402
2023-04-20T03:26:26.342Z,9.242518
2023-04-20T03:27:26.331Z,9.242644
2023-04-20T03:28:26.347Z,9.242411
2023-04-20T03:29:26.326Z,9.242389
2023-04-20T03:30:26.324Z,9.242374
2023-04-20T03:31:26.389Z,9.242228
2023-04-20T03:32:26.345Z,9.242345
2023-04-20T03:33:26.341Z,9.242086
2023-04-20T03:34:26.308Z,9.242294
2023-04-20T03:35:26.278Z,9.242261
2023-04-20T03:36:26.325Z,9.241952
2023-04-20T03:37:26.275Z,9.242041
2023-04-20T03:38:26.272Z,9.242352
2023-04-20T03:39:26.256Z,9.242243
2023-04-20T03:40:26.241Z,9.242276
2023-04-20T03:41:26.244Z,9.242409
2023-04-20T03:42:26.238Z,9.242330
2023-04-20T03:43:26.233Z,9.242293
2023-04-20T03:44:26.217Z,9.242316
2023-04-20T03:45:26.294Z,9.242130
2023-04-20T03:46:26.281Z,9.242200
2023-04-20T03:47:26.212Z,9.242268
2023-04-20T03:48:26.201Z,9.241975
2023-04-20T03:49:26.179Z,9.242224
2023-04-20T03:50:26.168Z,9.242270
2023-04-20T03:51:26.174Z,9.242414
2023-04-20T03:52:26.159Z,9.242277
2023-04-20T03:53:26.211Z,9.242224
2023-04-20T03:54:26.152Z,9.242360
2023-04-20T03:55:26.143Z,9.242427
2023-04-20T03:56:26.125Z,9.242368
2023-04-20T03:57:26.114Z,9.242377
2023-04-20T03:58:26.142Z,9.242373
2023-04-20T03:59:26.114Z,9.242343
2023-04-20T04:00:26.091Z,9.242418
2023-04-20T04:01:26.101Z,9.242348
2023-04-20T04:02:26.181Z,9.242365
2023-04-20T04:03:26.208Z,9.242378
2023-04-20T04:04:26.447Z,9.242315
2023-04-20T04:05:26.172Z,9.242258
2023-04-20T04:06:26.047Z,9.242313
2023-04-20T04:07:26.057Z,9.242354
2023-04-20T04:08:26.060Z,9.242348
2023-04-20T04:09:26.078Z,9.242372
2023-04-20T04:10:26.035Z,9.242374
2023-04-20T04:11:26.069Z,9.242278
2023-04-20T04:12:26.011Z,9.242309
2023-04-20T04:13:26.008Z,9.242381
2023-04-20T04:14:26.035Z,9.242397
2023-04-20T04:15:25.995Z,9.242349
2023-04-20T04:16:26.000Z,9.242288
2023-04-20T04:17:25.993Z,9.242315
2023-04-20T04:18:25.991Z,9.242321
2023-04-20T04:19:26.046Z,9.242301
2023-04-20T04:20:25.965Z,9.242255
2023-04-20T04:21:25.987Z,9.242271
2023-04-20T04:22:26.057Z,9.242321
2023-04-20T04:23:25.948Z,9.242345
2023-04-20T04:24:26.007Z,9.242331
2023-04-20T04:25:26.066Z,9.242229
2023-04-20T04:26:25.911Z,9.242292
2023-04-20T04:27:25.910Z,9.242319
2023-04-20T04:28:25.964Z,9.242276
2023-04-20T04:29:26.012Z,9.242342
2023-04-20T04:30:25.958Z,9.242373
2023-04-20T04:31:25.909Z,9.242257
2023-04-20T04:32:26.007Z,9.242327
2023-04-20T04:33:25.970Z,9.242336
2023-04-20T04:34:25.981Z,9.242300
2023-04-20T04:35:25.922Z,9.242352
2023-04-20T04:36:25.894Z,9.242303
2023-04-20T04:37:25.858Z,9.242299
2023-04-20T04:38:25.838Z,9.242291
2023-04-20T04:39:25.905Z,9.242229
2023-04-20T04:40:25.911Z,9.242237
2023-04-20T04:41:25.855Z,9.242206
2023-04-20T04:42:26.029Z,9.242311
2023-04-20T04:43:26.034Z,9.242230
2023-04-20T04:44:25.830Z,9.241950
2023-04-20T04:45:25.931Z,9.242017
2023-04-20T04:46:26.098Z,9.242216
2023-04-20T04:47:26.005Z,9.242199
2023-04-20T04:48:25.918Z,9.242255
2023-04-20T04:49:25.936Z,9.241997
2023-04-20T04:50:25.924Z,9.242023
2023-04-20T04:51:25.828Z,9.241948
2023-04-20T04:52:26.002Z,9.242118
2023-04-20T04:53:25.842Z,9.241565
2023-04-20T04:54:25.947Z,9.242103
2023-04-20T04:55:26.626Z,9.242100
2023-04-20T04:56:25.976Z,9.242390
2023-04-20T04:57:25.870Z,9.242327
2023-04-20T04:58:25.833Z,9.242432
2023-04-20T04:59:25.988Z,9.242365
2023-04-20T05:00:25.802Z,9.242215
2023-04-20T05:01:25.966Z,9.242126
2023-04-20T05:02:26.038Z,9.242236
2023-04-20T05:03:26.706Z,9.242417
2023-04-20T05:04:25.932Z,9.242435
2023-04-20T05:05:25.792Z,9.242480
2023-04-20T05:06:25.830Z,9.242449
2023-04-20T05:07:25.760Z,9.242316
2023-04-20T05:08:25.877Z,9.242355
2023-04-20T05:09:25.816Z,9.242344
2023-04-20T05:10:25.670Z,9.242351
2023-04-20T05:11:25.732Z,9.242303
2023-04-20T05:12:25.787Z,9.242363
2023-04-20T05:13:25.732Z,9.242315
2023-04-20T05:14:25.605Z,9.242390
2023-04-20T05:15:25.602Z,9.242425
2023-04-20T05:16:25.608Z,9.242456
2023-04-20T05:17:25.580Z,9.242379
2023-04-20T05:18:25.555Z,9.242413
2023-04-20T05:19:25.583Z,9.242450
2023-04-20T05:20:25.536Z,9.242521
2023-04-20T05:21:25.524Z,9.242484
2023-04-20T05:22:25.531Z,9.242427
2023-04-20T05:23:25.515Z,9.242415
2023-04-20T05:24:25.518Z,9.242345
2023-04-20T05:25:25.510Z,9.242358
2023-04-20T05:26:25.492Z,9.242487
2023-04-20T05:27:25.485Z,9.242532
2023-04-20T05:28:25.483Z,9.242492
2023-04-20T05:29:25.512Z,9.242443
2023-04-20T05:30:25.466Z,9.242439
2023-04-20T05:31:25.561Z,9.242376
2023-04-20T05:32:25.490Z,9.242359
2023-04-20T05:33:25.431Z,9.242353
2023-04-20T05:34:25.459Z,9.242394
2023-04-20T05:35:25.426Z,9.242397
2023-04-20T05:36:25.424Z,9.242417
2023-04-20T05:37:25.405Z,9.242423
2023-04-20T05:38:25.440Z,9.242350
2023-04-20T05:39:25.418Z,9.242342
2023-04-20T05:40:25.398Z,9.242340
2023-04-20T05:41:25.389Z,9.242399
2023-04-20T05:42:25.380Z,9.242438
2023-04-20T05:43:25.374Z,9.242412
2023-04-20T05:44:25.396Z,9.242363
2023-04-20T05:45:25.381Z,9.242361
2023-04-20T05:46:25.425Z,9.242299
2023-04-20T05:47:25.425Z,9.242327
2023-04-20T05:48:26.325Z,9.242311
2023-04-20T05:49:25.364Z,9.242334
2023-04-20T05:50:25.325Z,9.242389
2023-04-20T05:51:25.322Z,9.242372
2023-04-20T05:52:25.353Z,9.242390
2023-04-20T05:53:25.319Z,9.242583
2023-04-20T05:54:25.330Z,9.242391
2023-04-20T05:55:25.330Z,9.242341
2023-04-20T05:56:25.305Z,9.242256
2023-04-20T05:57:25.285Z,9.242343
2023-04-20T05:58:25.270Z,9.242348
2023-04-20T05:59:25.284Z,9.242385
2023-04-20T06:00:26.375Z,9.242393
2023-04-20T06:01:26.257Z,9.242390
2023-04-20T06:02:26.310Z,9.242403
2023-04-20T06:03:25.510Z,9.242414
2023-04-20T06:04:25.709Z,9.242359
2023-04-20T06:05:25.282Z,9.242344
2023-04-20T06:06:25.289Z,9.242381
2023-04-20T06:07:25.218Z,9.242407
2023-04-20T06:08:25.206Z,9.242397
2023-04-20T06:09:25.231Z,9.242424
2023-04-20T06:10:25.204Z,9.242309
2023-04-20T06:11:25.286Z,9.242332
2023-04-20T06:12:26.758Z,9.242357
2023-04-20T06:13:26.174Z,9.242348
2023-04-20T06:14:25.165Z,9.242327
2023-04-20T06:15:25.165Z,9.242311
2023-04-20T06:16:25.202Z,9.242305
2023-04-20T06:17:25.149Z,9.242363
2023-04-20T06:18:25.149Z,9.242318
2023-04-20T06:19:25.150Z,9.242362
2023-04-20T06:20:25.120Z,9.242351
2023-04-20T06:21:25.125Z,9.242257
2023-04-20T06:22:25.106Z,9.242303
2023-04-20T06:23:25.127Z,9.242334
2023-04-20T06:24:25.126Z,9.242351
2023-04-20T06:25:25.105Z,9.242347
2023-04-20T06:26:25.098Z,9.242344
2023-04-20T06:27:25.130Z,9.242339
2023-04-20T06:28:25.082Z,9.242282
2023-04-20T06:29:25.130Z,9.242277
2023-04-20T06:30:25.062Z,9.242286
2023-04-20T06:31:25.092Z,9.242296
2023-04-20T06:32:25.062Z,9.242356
2023-04-20T06:33:25.036Z,9.242353
2023-04-20T06:34:25.083Z,9.242392
2023-04-20T06:35:25.033Z,9.242419
2023-04-20T06:36:25.013Z,9.242390
2023-04-20T06:37:25.020Z,9.242382
2023-04-20T06:38:25.005Z,9.242358
2023-04-20T06:39:25.013Z,9.242379
2023-04-20T06:40:25.001Z,9.242392
2023-04-20T06:41:24.976Z,9.242442
2023-04-20T06:42:24.980Z,9.242411
2023-04-20T06:43:24.983Z,9.242443
2023-04-20T06:44:24.972Z,9.242428
2023-04-20T06:45:24.966Z,9.242403
2023-04-20T06:46:24.990Z,9.242417
2023-04-20T06:47:24.939Z,9.242389
2023-04-20T06:48:32.045Z,9.242297
2023-04-20T06:49:26.943Z,9.242484
2023-04-20T06:50:24.917Z,9.242478
2023-04-20T06:51:24.920Z,9.242467
2023-04-20T06:52:24.901Z,9.242403
2023-04-20T06:53:24.893Z,9.242385
2023-04-20T06:54:24.904Z,9.242418
2023-04-20T06:55:24.878Z,9.242430
2023-04-20T06:56:24.888Z,9.242398
2023-04-20T06:57:24.875Z,9.242352
2023-04-20T06:58:24.875Z,9.242441
2023-04-20T06:59:24.933Z,9.242381
2023-04-20T07:00:24.844Z,9.242377
2023-04-20T07:01:24.881Z,9.242331
2023-04-20T07:02:24.952Z,9.242408
2023-04-20T07:03:25.015Z,9.242375
2023-04-20T07:04:24.882Z,9.242382
2023-04-20T07:05:24.837Z,9.242468
2023-04-20T07:06:24.805Z,9.242367
2023-04-20T07:07:24.801Z,9.242404
2023-04-20T07:08:24.791Z,9.242363
2023-04-20T07:09:24.819Z,9.242438
2023-04-20T07:10:24.780Z,9.242453
2023-04-20T07:11:24.814Z,9.242444
2023-04-20T07:12:24.782Z,9.242436
2023-04-20T07:13:24.754Z,9.242432
2023-04-20T07:14:24.799Z,9.242392
2023-04-20T07:15:24.747Z,9.242351
2023-04-20T07:16:24.755Z,9.242430
2023-04-20T07:17:24.840Z,9.242438
2023-04-20T07:18:24.718Z,9.242403
2023-04-20T07:19:24.748Z,9.242485
2023-04-20T07:20:24.731Z,9.242433
2023-04-20T07:21:24.703Z,9.242470
2023-04-20T07:22:24.690Z,9.242433
2023-04-20T07:23:24.709Z,9.242472
2023-04-20T07:24:24.709Z,9.242402
2023-04-20T07:25:24.677Z,9.242375
2023-04-20T07:26:24.683Z,9.242418
2023-04-20T07:27:24.673Z,9.242355
2023-04-20T07:28:24.676Z,9.242340
2023-04-20T07:29:24.696Z,9.242378
2023-04-20T07:30:24.654Z,9.242378
2023-04-20T07:31:24.725Z,9.242324
2023-04-20T07:32:24.673Z,9.242378
2023-04-20T07:33:24.624Z,9.242429
2023-04-20T07:34:24.634Z,9.242430
2023-04-20T07:35:24.622Z,9.242383
2023-04-20T07:36:24.610Z,9.242409
2023-04-20T07:37:26.822Z,9.242401
2023-04-20T07:38:25.842Z,9.242413
2023-04-20T07:39:24.600Z,9.242412
2023-04-20T07:40:24.606Z,9.242475
2023-04-20T07:41:24.579Z,9.242484
2023-04-20T07:42:24.573Z,9.242343
2023-04-20T07:43:24.559Z,9.242323
2023-04-20T07:44:24.592Z,9.242343
2023-04-20T07:45:24.556Z,9.242457
2023-04-20T07:46:24.593Z,9.242422
2023-04-20T07:47:24.573Z,9.242384
2023-04-20T07:48:24.541Z,9.242375
2023-04-20T07:49:24.551Z,9.242452
2023-04-20T07:50:24.545Z,9.242465
2023-04-20T07:51:24.517Z,9.242427
2023-04-20T07:52:24.509Z,9.242394
2023-04-20T07:53:24.506Z,9.242419
2023-04-20T07:54:24.506Z,9.242459
2023-04-20T07:55:24.500Z,9.242460
2023-04-20T07:56:24.477Z,9.242442
2023-04-20T07:57:24.470Z,9.242407
2023-04-20T07:58:24.574Z,9.242449
2023-04-20T07:59:24.476Z,9.242470
2023-04-20T08:00:24.466Z,9.242455
2023-04-20T08:01:24.457Z,9.242470
2023-04-20T08:02:24.521Z,9.242469
2023-04-20T08:03:24.887Z,9.242448
2023-04-20T08:04:24.643Z,9.242454
2023-04-20T08:05:24.502Z,9.242445
2023-04-20T08:06:24.455Z,9.242401
2023-04-20T08:07:24.706Z,9.242417
2023-04-20T08:08:24.391Z,9.242443
2023-04-20T08:09:24.409Z,9.242436
2023-04-20T08:10:25.397Z,9.242479
2023-04-20T08:11:24.372Z,9.242421
2023-04-20T08:12:24.374Z,9.242433
2023-04-20T08:13:24.341Z,9.242470
2023-04-20T08:14:24.356Z,9.242459
2023-04-20T08:15:24.367Z,9.242459
2023-04-20T08:16:24.364Z,9.242493
2023-04-20T08:17:24.361Z,9.242509
2023-04-20T08:18:24.333Z,9.242456
2023-04-20T08:19:24.438Z,9.242398
2023-04-20T08:20:24.373Z,9.242495
2023-04-20T08:21:25.516Z,9.242414
2023-04-20T08:22:25.426Z,9.242450
2023-04-20T08:23:24.320Z,9.242282
2023-04-20T08:24:24.268Z,9.242370
2023-04-20T08:25:25.376Z,9.242318
2023-04-20T08:26:25.283Z,9.242318
2023-04-20T08:27:24.265Z,9.242270
2023-04-20T08:28:33.256Z,9.242150
2023-04-20T08:29:26.237Z,9.242482
2023-04-20T08:30:24.317Z,9.242401
2023-04-20T08:31:24.268Z,9.242420
2023-04-20T08:32:24.234Z,9.242320
2023-04-20T08:33:24.224Z,9.242376
2023-04-20T08:34:24.205Z,9.242270
2023-04-20T08:35:24.215Z,9.242351
2023-04-20T08:36:24.187Z,9.242266
2023-04-20T08:37:24.192Z,9.242378
2023-04-20T08:38:33.780Z,9.242379
2023-04-20T08:39:26.175Z,9.242345
2023-04-20T08:40:24.232Z,9.242323
2023-04-20T08:41:24.349Z,9.242347
2023-04-20T08:42:24.156Z,9.242443
2023-04-20T08:43:24.140Z,9.242413
2023-04-20T08:44:24.145Z,9.242369
2023-04-20T08:45:24.136Z,9.242362
2023-04-20T08:46:24.158Z,9.242380
2023-04-20T08:47:24.143Z,9.242349
2023-04-20T08:48:24.134Z,9.242350
2023-04-20T08:49:24.108Z,9.242346
2023-04-20T08:50:24.148Z,9.242340
2023-04-20T08:51:24.479Z,9.242335
2023-04-20T08:52:24.083Z,9.242349
2023-04-20T08:53:24.075Z,9.242329
2023-04-20T08:54:24.816Z,9.242374
2023-04-20T08:55:25.082Z,9.242429
2023-04-20T08:56:24.038Z,9.242403
2023-04-20T08:57:24.046Z,9.242387
2023-04-20T08:58:24.026Z,9.242398
2023-04-20T08:59:24.052Z,9.242411
2023-04-20T09:00:24.042Z,9.242398
2023-04-20T09:01:34.348Z,9.242337
2023-04-20T09:02:26.153Z,9.242373
2023-04-20T09:03:24.211Z,9.242375
2023-04-20T09:04:24.653Z,9.242420
2023-04-20T09:05:24.120Z,9.242396
2023-04-20T09:06:23.979Z,9.242367
2023-04-20T09:07:23.973Z,9.242344
2023-04-20T09:08:23.969Z,9.242356
2023-04-20T09:09:23.964Z,9.242221
2023-04-20T09:10:24.059Z,9.242367
2023-04-20T09:11:24.948Z,9.242384
2023-04-20T09:12:23.944Z,9.242390
2023-04-20T09:13:23.938Z,9.242301
2023-04-20T09:14:23.939Z,9.242368
2023-04-20T09:15:23.944Z,9.242332
2023-04-20T09:16:23.979Z,9.242320
2023-04-20T09:17:23.940Z,9.242349
2023-04-20T09:18:23.909Z,9.242369
2023-04-20T09:19:23.900Z,9.242335
2023-04-20T09:20:23.908Z,9.242406
2023-04-20T09:21:23.872Z,9.242280
2023-04-20T09:22:23.880Z,9.242352
2023-04-20T09:23:24.082Z,9.242382
2023-04-20T09:24:23.898Z,9.242314
2023-04-20T09:25:23.877Z,9.242332
2023-04-20T09:26:23.843Z,9.242141
2023-04-20T09:27:23.846Z,9.242189
2023-04-20T09:28:23.826Z,9.242326
2023-04-20T09:29:23.828Z,9.242343
2023-04-20T09:30:23.851Z,9.242414
2023-04-20T09:31:23.899Z,9.242328
2023-04-20T09:32:23.850Z,9.242312
2023-04-20T09:33:23.793Z,9.242404
2023-04-20T09:34:23.821Z,9.242366
2023-04-20T09:35:23.800Z,9.242319
2023-04-20T09:36:23.781Z,9.242435
2023-04-20T09:37:23.778Z,9.242398
2023-04-20T09:38:23.764Z,9.242340
2023-04-20T09:39:23.763Z,9.242365
2023-04-20T09:40:23.768Z,9.242365
2023-04-20T09:41:23.747Z,9.242306
2023-04-20T09:42:23.757Z,9.242351
2023-04-20T09:43:23.727Z,9.242353
2023-04-20T09:44:23.732Z,9.242397
2023-04-20T09:45:23.739Z,9.242411
2023-04-20T09:46:23.854Z,9.242459
2023-04-20T09:47:23.725Z,9.242404
2023-04-20T09:48:23.715Z,9.242394
2023-04-20T09:49:23.696Z,9.242367
2023-04-20T09:50:31.761Z,9.242365
2023-04-20T09:51:25.864Z,9.242372
2023-04-20T09:52:23.668Z,9.242432
2023-04-20T09:53:23.668Z,9.242404
2023-04-20T09:54:23.699Z,9.242342
2023-04-20T09:55:23.672Z,9.242394
2023-04-20T09:56:23.658Z,9.242437
2023-04-20T09:57:23.627Z,9.242343
2023-04-20T09:58:23.622Z,9.242384
2023-04-20T09:59:23.651Z,9.242363
2023-04-20T10:00:23.654Z,9.242382
2023-04-20T10:01:23.657Z,9.242430
2023-04-20T10:02:23.739Z,9.242379
2023-04-20T10:03:23.714Z,9.242394
2023-04-20T10:04:24.085Z,9.242363
2023-04-20T10:05:23.597Z,9.242329
2023-04-20T10:06:23.599Z,9.242373
2023-04-20T10:07:23.579Z,9.242361
2023-04-20T10:08:23.565Z,9.242294
2023-04-20T10:09:23.586Z,9.242335
2023-04-20T10:10:23.574Z,9.242404
2023-04-20T10:11:23.577Z,9.242406
2023-04-20T10:12:23.558Z,9.242304
2023-04-20T10:13:23.579Z,9.242350
2023-04-20T10:14:23.536Z,9.242368
2023-04-20T10:15:23.542Z,9.242354
2023-04-20T10:16:23.528Z,9.242391
2023-04-20T10:17:23.729Z,9.242350
2023-04-20T10:18:24.124Z,9.242376
2023-04-20T10:19:23.491Z,9.242417
2023-04-20T10:20:23.507Z,9.242295
2023-04-20T10:21:23.479Z,9.242372
2023-04-20T10:22:23.512Z,9.242367
2023-04-20T10:23:23.500Z,9.242350
2023-04-20T10:24:23.584Z,9.242420
2023-04-20T10:25:23.466Z,9.242367
2023-04-20T10:26:23.439Z,9.242258
2023-04-20T10:27:23.440Z,9.242299
2023-04-20T10:28:23.423Z,9.242383
2023-04-20T10:29:23.412Z,9.242342
2023-04-20T10:30:23.439Z,9.242380
2023-04-20T10:31:23.451Z,9.242349
2023-04-20T10:32:23.707Z,9.242392
2023-04-20T10:33:23.390Z,9.242357
2023-04-20T10:34:23.429Z,9.242342
2023-04-20T10:35:23.388Z,9.242332
2023-04-20T10:36:23.369Z,9.242359
2023-04-20T10:37:23.393Z,9.242447
2023-04-20T10:38:23.377Z,9.242421
2023-04-20T10:39:23.555Z,9.242352
2023-04-20T10:40:23.380Z,9.242367
2023-04-20T10:41:23.320Z,9.242360
2023-04-20T10:42:23.330Z,9.242365
2023-04-20T10:43:23.315Z,9.242377
2023-04-20T10:44:23.331Z,9.242389
2023-04-20T10:45:23.316Z,9.242268
2023-04-20T10:46:23.359Z,9.242270
2023-04-20T10:47:23.313Z,9.242350
2023-04-20T10:48:23.289Z,9.242391
2023-04-20T10:49:23.268Z,9.242302
2023-04-20T10:50:23.298Z,9.242290
2023-04-20T10:51:23.263Z,9.242329
2023-04-20T10:52:23.245Z,9.242329
2023-04-20T10:53:23.262Z,9.242332
2023-04-20T10:54:23.265Z,9.242358
2023-04-20T10:55:23.239Z,9.242334
2023-04-20T10:56:23.253Z,9.242362
2023-04-20T10:57:23.228Z,9.242333
2023-04-20T10:58:23.214Z,9.242351
2023-04-20T10:59:23.212Z,9.242319
2023-04-20T11:00:23.214Z,9.242261
2023-04-20T11:01:23.242Z,9.242304
2023-04-20T11:02:23.565Z,9.242377
2023-04-20T11:03:23.366Z,9.242295
2023-04-20T11:04:23.202Z,9.242302
2023-04-20T11:05:23.328Z,9.242327
2023-04-20T11:06:23.158Z,9.242353
2023-04-20T11:07:23.178Z,9.242374
2023-04-20T11:08:23.147Z,9.242230
2023-04-20T11:09:23.141Z,9.242354
2023-04-20T11:10:23.191Z,9.242382
2023-04-20T11:11:23.116Z,9.242285
2023-04-20T11:12:23.126Z,9.242348
2023-04-20T11:13:23.148Z,9.242323
2023-04-20T11:14:23.106Z,9.242249
2023-04-20T11:15:23.134Z,9.242362
2023-04-20T11:16:28.127Z,9.242380
2023-04-20T11:17:24.151Z,9.242332
2023-04-20T11:18:23.155Z,9.242424
2023-04-20T11:19:23.106Z,9.242425
2023-04-20T11:20:23.074Z,9.242272
2023-04-20T11:21:23.051Z,9.242239
2023-04-20T11:22:23.053Z,9.242232
2023-04-20T11:23:23.054Z,9.242324
2023-04-20T11:24:23.035Z,9.242433
2023-04-20T11:25:23.092Z,9.242339
2023-04-20T11:26:23.042Z,9.242365
2023-04-20T11:27:23.008Z,9.242384
2023-04-20T11:28:23.023Z,9.242346
2023-04-20T11:29:23.042Z,9.242188
2023-04-20T11:30:23.007Z,9.242245
2023-04-20T11:31:23.114Z,9.242412
2023-04-20T11:32:23.203Z,9.242470
2023-04-20T11:33:23.063Z,9.242360
2023-04-20T11:34:22.967Z,9.242248
2023-04-20T11:35:22.978Z,9.242434
2023-04-20T11:36:22.959Z,9.242472
2023-04-20T11:37:22.948Z,9.242439
2023-04-20T11:38:22.938Z,9.242469
2023-04-20T11:39:22.924Z,9.242480
2023-04-20T11:40:22.963Z,9.242517
2023-04-20T11:41:22.913Z,9.242483
2023-04-20T11:42:22.910Z,9.242488
2023-04-20T11:43:22.933Z,9.242481
2023-04-20T11:44:22.897Z,9.242460